createdAt,value
2023-05-22T00:00:37.081Z,18.96
2023-05-22T00:01:36.778Z,21.22
2023-05-22T00:02:36.854Z,21.54
2023-05-22T00:03:36.801Z,19.61
2023-05-22T00:04:36.733Z,20.90
2023-05-22T00:05:36.862Z,19.93
2023-05-22T00:06:37.128Z,20.25
2023-05-22T00:07:36.700Z,19.29
2023-05-22T00:08:36.685Z,20.25
2023-05-22T00:09:36.690Z,19.61
2023-05-22T00:10:36.805Z,20.90
2023-05-22T00:11:36.689Z,19.61
2023-05-22T00:12:36.640Z,21.87
2023-05-22T00:13:36.628Z,19.29
2023-05-22T00:14:36.603Z,20.25
2023-05-22T00:15:36.599Z,20.25
2023-05-22T00:16:36.619Z,21.22
2023-05-22T00:17:36.617Z,19.93
2023-05-22T00:18:36.555Z,19.29
2023-05-22T00:19:36.636Z,20.58
2023-05-22T00:20:36.696Z,21.87
2023-05-22T00:21:36.508Z,18.64
2023-05-22T00:22:36.482Z,20.90
2023-05-22T00:23:36.479Z,19.61
2023-05-22T00:24:36.459Z,20.90
2023-05-22T00:25:36.479Z,19.93
2023-05-22T00:26:36.445Z,20.25
2023-05-22T00:27:36.420Z,18.32
2023-05-22T00:28:36.410Z,19.61
2023-05-22T00:29:36.406Z,19.29
2023-05-22T00:30:36.585Z,18.96
2023-05-22T00:31:36.370Z,20.25
2023-05-22T00:32:36.437Z,21.54
2023-05-22T00:33:36.362Z,20.25
2023-05-22T00:34:36.513Z,19.93
2023-05-22T00:35:36.355Z,20.25
2023-05-22T00:36:36.312Z,18.96
2023-05-22T00:37:36.297Z,18.96
2023-05-22T00:38:36.278Z,18.96
2023-05-22T00:39:36.281Z,19.61
2023-05-22T00:40:36.349Z,21.54
2023-05-22T00:41:36.271Z,19.29
2023-05-22T00:42:36.216Z,20.90
2023-05-22T00:43:36.213Z,19.93
2023-05-22T00:44:36.197Z,19.29
2023-05-22T00:45:36.190Z,21.54
2023-05-22T00:46:36.249Z,21.87
2023-05-22T00:47:36.197Z,20.58
2023-05-22T00:48:36.146Z,19.61
2023-05-22T00:49:36.127Z,19.93
2023-05-22T00:50:36.221Z,19.29
2023-05-22T00:51:36.097Z,20.90
2023-05-22T00:52:36.092Z,19.93
2023-05-22T00:53:36.083Z,18.32
2023-05-22T00:54:36.062Z,19.93
2023-05-22T00:55:36.066Z,18.96
2023-05-22T00:56:36.040Z,21.87
2023-05-22T00:57:36.048Z,22.19
2023-05-22T00:58:36.005Z,19.93
2023-05-22T00:59:35.999Z,20.58
2023-05-22T01:00:36.224Z,18.64
2023-05-22T01:01:36.324Z,19.29
2023-05-22T01:02:36.020Z,19.29
2023-05-22T01:03:35.976Z,20.58
2023-05-22T01:04:35.926Z,19.61
2023-05-22T01:05:35.918Z,20.25
2023-05-22T01:06:35.906Z,19.61
2023-05-22T01:07:35.892Z,21.22
2023-05-22T01:08:35.875Z,18.96
2023-05-22T01:09:35.863Z,21.22
2023-05-22T01:10:35.862Z,18.96
2023-05-22T01:11:35.840Z,19.93
2023-05-22T01:12:35.824Z,20.25
2023-05-22T01:13:35.831Z,17.68
2023-05-22T01:14:35.794Z,19.29
2023-05-22T01:15:35.781Z,19.61
2023-05-22T01:16:35.794Z,22.51
2023-05-22T01:17:36.163Z,20.58
2023-05-22T01:18:35.749Z,19.29
2023-05-22T01:19:35.883Z,18.64
2023-05-22T01:20:35.726Z,20.90
2023-05-22T01:21:35.709Z,18.96
2023-05-22T01:22:35.689Z,18.64
2023-05-22T01:23:35.685Z,18.96
2023-05-22T01:24:35.665Z,21.54
2023-05-22T01:25:35.675Z,18.96
2023-05-22T01:26:35.635Z,18.00
2023-05-22T01:27:35.627Z,20.90
2023-05-22T01:28:35.610Z,18.96
2023-05-22T01:29:35.620Z,18.32
2023-05-22T01:30:35.587Z,21.54
2023-05-22T01:31:35.572Z,19.29
2023-05-22T01:32:35.626Z,21.54
2023-05-22T01:33:35.651Z,21.22
2023-05-22T01:34:35.552Z,19.61
2023-05-22T01:35:35.526Z,19.61
2023-05-22T01:36:35.508Z,18.96
2023-05-22T01:37:35.495Z,19.29
2023-05-22T01:38:35.495Z,20.25
2023-05-22T01:39:35.477Z,20.25
2023-05-22T01:40:35.454Z,18.32
2023-05-22T01:41:35.450Z,21.22
2023-05-22T01:42:35.427Z,21.54
2023-05-22T01:43:35.434Z,20.90
2023-05-22T01:44:35.410Z,18.64
2023-05-22T01:45:35.466Z,18.00
2023-05-22T01:46:35.379Z,21.87
2023-05-22T01:47:35.403Z,18.64
2023-05-22T01:48:35.358Z,19.61
2023-05-22T01:49:35.336Z,18.64
2023-05-22T01:50:35.326Z,18.96
2023-05-22T01:51:35.314Z,18.64
2023-05-22T01:52:35.325Z,18.96
2023-05-22T01:53:35.289Z,19.61
2023-05-22T01:54:35.322Z,19.61
2023-05-22T01:55:35.349Z,18.64
2023-05-22T01:56:35.252Z,18.96
2023-05-22T01:57:35.241Z,18.32
2023-05-22T01:58:35.225Z,19.29
2023-05-22T01:59:35.214Z,20.90
2023-05-22T02:00:35.196Z,19.93
2023-05-22T02:01:35.255Z,20.90
2023-05-22T02:02:35.208Z,19.93
2023-05-22T02:03:35.184Z,22.19
2023-05-22T02:04:35.135Z,19.29
2023-05-22T02:05:35.133Z,18.64
2023-05-22T02:06:35.109Z,20.90
2023-05-22T02:07:35.098Z,18.96
2023-05-22T02:08:35.086Z,20.90
2023-05-22T02:09:35.074Z,18.64
2023-05-22T02:10:35.061Z,18.00
2023-05-22T02:11:35.051Z,20.90
2023-05-22T02:12:35.037Z,20.25
2023-05-22T02:13:35.025Z,18.96
2023-05-22T02:14:35.019Z,18.96
2023-05-22T02:15:35.039Z,19.29
2023-05-22T02:16:34.978Z,20.58
2023-05-22T02:17:35.022Z,18.96
2023-05-22T02:18:34.952Z,18.96
2023-05-22T02:19:35.013Z,18.32
2023-05-22T02:20:34.929Z,18.32
2023-05-22T02:21:34.970Z,18.64
2023-05-22T02:22:34.906Z,18.32
2023-05-22T02:23:34.894Z,18.32
2023-05-22T02:24:34.888Z,20.90
2023-05-22T02:25:34.877Z,18.96
2023-05-22T02:26:35.054Z,20.58
2023-05-22T02:27:34.839Z,19.93
2023-05-22T02:28:34.825Z,20.90
2023-05-22T02:29:34.811Z,18.64
2023-05-22T02:30:34.810Z,19.93
2023-05-22T02:31:34.819Z,18.32
2023-05-22T02:32:34.890Z,18.96
2023-05-22T02:33:34.981Z,18.00
2023-05-22T02:34:34.754Z,17.68
2023-05-22T02:35:34.739Z,20.58
2023-05-22T02:36:34.736Z,18.96
2023-05-22T02:37:34.717Z,19.29
2023-05-22T02:38:34.696Z,18.64
2023-05-22T02:39:34.695Z,18.32
2023-05-22T02:40:34.672Z,19.61
2023-05-22T02:41:34.664Z,18.32
2023-05-22T02:42:34.643Z,18.00
2023-05-22T02:43:34.628Z,19.29
2023-05-22T02:44:34.616Z,18.00
2023-05-22T02:45:34.614Z,20.25
2023-05-22T02:46:34.647Z,19.93
2023-05-22T02:47:34.626Z,18.64
2023-05-22T02:48:34.564Z,18.96
2023-05-22T02:49:34.581Z,18.64
2023-05-22T02:50:34.564Z,18.64
2023-05-22T02:51:34.520Z,19.29
2023-05-22T02:52:34.512Z,18.96
2023-05-22T02:53:34.500Z,18.64
2023-05-22T02:54:34.484Z,19.61
2023-05-22T02:55:34.467Z,17.68
2023-05-22T02:56:34.458Z,18.00
2023-05-22T02:57:34.442Z,18.64
2023-05-22T02:58:34.427Z,20.25
2023-05-22T02:59:34.424Z,21.87
2023-05-22T03:00:34.410Z,18.00
2023-05-22T03:01:34.453Z,18.32
2023-05-22T03:02:34.571Z,20.58
2023-05-22T03:03:34.508Z,19.29
2023-05-22T03:04:34.355Z,18.64
2023-05-22T03:05:34.376Z,18.32
2023-05-22T03:06:34.360Z,19.29
2023-05-22T03:07:34.310Z,17.68
2023-05-22T03:08:34.301Z,20.58
2023-05-22T03:09:34.312Z,18.64
2023-05-22T03:10:34.265Z,20.90
2023-05-22T03:11:34.480Z,19.61
2023-05-22T03:12:34.244Z,19.61
2023-05-22T03:13:34.236Z,17.68
2023-05-22T03:14:34.227Z,20.25
2023-05-22T03:15:34.217Z,19.29
2023-05-22T03:16:34.277Z,18.96
2023-05-22T03:17:34.191Z,19.61
2023-05-22T03:18:34.173Z,18.32
2023-05-22T03:19:34.192Z,21.22
2023-05-22T03:20:34.140Z,18.32
2023-05-22T03:21:34.156Z,18.64
2023-05-22T03:22:34.109Z,18.00
2023-05-22T03:23:34.103Z,19.29
2023-05-22T03:24:34.289Z,18.96
2023-05-22T03:25:34.077Z,19.61
2023-05-22T03:26:34.069Z,17.68
2023-05-22T03:27:34.046Z,18.64
2023-05-22T03:28:34.065Z,18.96
2023-05-22T03:29:34.037Z,17.68
2023-05-22T03:30:34.024Z,20.58
2023-05-22T03:31:34.011Z,20.58
2023-05-22T03:32:34.051Z,18.64
2023-05-22T03:33:34.022Z,18.00
2023-05-22T03:34:33.966Z,20.58
2023-05-22T03:35:33.964Z,20.58
2023-05-22T03:36:34.039Z,17.35
2023-05-22T03:37:33.943Z,18.32
2023-05-22T03:38:33.907Z,18.64
2023-05-22T03:39:33.893Z,18.64
2023-05-22T03:40:33.877Z,18.00
2023-05-22T03:41:33.879Z,18.32
2023-05-22T03:42:33.861Z,18.64
2023-05-22T03:43:33.840Z,18.96
2023-05-22T03:44:33.845Z,17.68
2023-05-22T03:45:33.855Z,18.00
2023-05-22T03:46:33.840Z,18.96
2023-05-22T03:47:33.829Z,20.25
2023-05-22T03:48:33.793Z,18.00
2023-05-22T03:49:33.777Z,17.68
2023-05-22T03:50:33.747Z,20.90
2023-05-22T03:51:33.750Z,18.32
2023-05-22T03:52:33.729Z,18.96
2023-05-22T03:53:33.736Z,19.29
2023-05-22T03:54:33.706Z,20.25
2023-05-22T03:55:33.697Z,18.00
2023-05-22T03:56:33.696Z,18.32
2023-05-22T03:57:33.663Z,20.58
2023-05-22T03:58:33.643Z,19.29
2023-05-22T03:59:33.638Z,20.25
2023-05-22T04:00:33.621Z,17.35
2023-05-22T04:01:33.613Z,18.96
2023-05-22T04:02:33.650Z,20.25
2023-05-22T04:03:33.644Z,17.35
2023-05-22T04:04:33.824Z,18.32
2023-05-22T04:05:33.630Z,18.64
2023-05-22T04:06:33.536Z,17.35
2023-05-22T04:07:33.525Z,18.64
2023-05-22T04:08:33.508Z,20.58
2023-05-22T04:09:33.528Z,18.00
2023-05-22T04:10:33.492Z,18.00
2023-05-22T04:11:33.473Z,17.68
2023-05-22T04:12:33.459Z,17.35
2023-05-22T04:13:33.453Z,18.00
2023-05-22T04:14:33.434Z,18.64
2023-05-22T04:15:33.424Z,20.25
2023-05-22T04:16:33.443Z,19.93
2023-05-22T04:17:33.663Z,19.29
2023-05-22T04:18:33.376Z,18.00
2023-05-22T04:19:33.424Z,18.64
2023-05-22T04:20:33.350Z,18.00
2023-05-22T04:21:33.339Z,19.29
2023-05-22T04:22:33.337Z,17.68
2023-05-22T04:23:33.317Z,18.96
2023-05-22T04:24:33.296Z,19.29
2023-05-22T04:25:33.306Z,18.96
2023-05-22T04:26:33.282Z,19.93
2023-05-22T04:27:33.459Z,19.29
2023-05-22T04:28:33.252Z,17.35
2023-05-22T04:29:33.244Z,18.00
2023-05-22T04:30:33.218Z,18.32
2023-05-22T04:31:33.227Z,19.61
2023-05-22T04:32:33.232Z,18.32
2023-05-22T04:33:33.173Z,18.32
2023-05-22T04:34:33.164Z,17.68
2023-05-22T04:35:33.165Z,19.93
2023-05-22T04:36:33.145Z,20.25
2023-05-22T04:37:33.130Z,18.64
2023-05-22T04:38:33.115Z,18.32
2023-05-22T04:39:33.102Z,18.32
2023-05-22T04:40:33.089Z,18.96
2023-05-22T04:41:33.094Z,19.29
2023-05-22T04:42:33.058Z,18.32
2023-05-22T04:43:33.039Z,18.00
2023-05-22T04:44:33.030Z,18.00
2023-05-22T04:45:33.153Z,20.25
2023-05-22T04:46:33.060Z,18.64
2023-05-22T04:47:33.043Z,17.68
2023-05-22T04:48:32.980Z,18.32
2023-05-22T04:49:32.963Z,18.00
2023-05-22T04:50:33.087Z,19.93
2023-05-22T04:51:32.942Z,18.32
2023-05-22T04:52:32.921Z,18.64
2023-05-22T04:53:33.056Z,18.32
2023-05-22T04:54:32.896Z,18.64
2023-05-22T04:55:32.883Z,19.61
2023-05-22T04:56:36.997Z,20.25
2023-05-22T04:57:32.877Z,18.64
2023-05-22T04:58:32.849Z,17.35
2023-05-22T04:59:32.826Z,18.64
2023-05-22T05:00:32.845Z,18.96
2023-05-22T05:01:33.642Z,20.25
2023-05-22T05:02:32.934Z,17.35
2023-05-22T05:03:32.836Z,17.03
2023-05-22T05:04:32.773Z,17.68
2023-05-22T05:05:32.747Z,19.29
2023-05-22T05:06:32.737Z,18.64
2023-05-22T05:07:32.723Z,18.00
2023-05-22T05:08:32.953Z,17.35
2023-05-22T05:09:32.702Z,17.68
2023-05-22T05:10:32.683Z,17.68
2023-05-22T05:11:32.670Z,16.71
2023-05-22T05:12:32.653Z,17.03
2023-05-22T05:13:32.663Z,18.96
2023-05-22T05:14:32.628Z,18.32
2023-05-22T05:15:32.610Z,18.96
2023-05-22T05:16:32.651Z,17.35
2023-05-22T05:17:32.591Z,18.96
2023-05-22T05:18:32.873Z,18.96
2023-05-22T05:19:34.776Z,18.00
2023-05-22T05:20:32.546Z,18.32
2023-05-22T05:21:32.535Z,18.96
2023-05-22T05:22:32.525Z,18.64
2023-05-22T05:23:32.506Z,18.00
2023-05-22T05:24:32.491Z,18.00
2023-05-22T05:25:32.472Z,18.96
2023-05-22T05:26:32.462Z,20.58
2023-05-22T05:27:32.455Z,19.61
2023-05-22T05:28:32.447Z,18.32
2023-05-22T05:29:32.450Z,18.32
2023-05-22T05:30:32.434Z,17.35
2023-05-22T05:31:32.405Z,18.96
2023-05-22T05:32:32.431Z,18.32
2023-05-22T05:33:32.373Z,18.96
2023-05-22T05:34:32.368Z,19.61
2023-05-22T05:35:32.345Z,18.00
2023-05-22T05:36:32.337Z,17.03
2023-05-22T05:37:32.322Z,17.68
2023-05-22T05:38:32.307Z,18.00
2023-05-22T05:39:32.291Z,18.00
2023-05-22T05:40:32.278Z,18.32
2023-05-22T05:41:32.260Z,18.64
2023-05-22T05:42:32.286Z,17.03
2023-05-22T05:43:32.237Z,17.68
2023-05-22T05:44:32.228Z,18.00
2023-05-22T05:45:32.237Z,17.68
2023-05-22T05:46:32.283Z,18.00
2023-05-22T05:47:32.242Z,18.64
2023-05-22T05:48:32.178Z,17.68
2023-05-22T05:49:34.934Z,17.35
2023-05-22T05:50:32.155Z,17.68
2023-05-22T05:51:32.217Z,18.96
2023-05-22T05:52:32.121Z,19.93
2023-05-22T05:53:32.106Z,18.00
2023-05-22T05:54:32.102Z,18.00
2023-05-22T05:55:33.899Z,17.68
2023-05-22T05:56:32.071Z,17.68
2023-05-22T05:57:32.057Z,17.35
2023-05-22T05:58:32.045Z,18.32
2023-05-22T05:59:32.139Z,17.35
2023-05-22T06:00:32.020Z,18.00
2023-05-22T06:01:32.141Z,17.68
2023-05-22T06:02:32.023Z,18.32
2023-05-22T06:03:32.123Z,17.68
2023-05-22T06:04:31.954Z,18.64
2023-05-22T06:05:31.994Z,17.03
2023-05-22T06:06:31.931Z,18.00
2023-05-22T06:07:31.918Z,17.35
2023-05-22T06:08:31.904Z,17.35
2023-05-22T06:09:31.894Z,18.00
2023-05-22T06:10:31.880Z,17.35
2023-05-22T06:11:31.871Z,18.32
2023-05-22T06:12:32.031Z,18.32
2023-05-22T06:13:31.862Z,18.32
2023-05-22T06:14:31.828Z,17.68
2023-05-22T06:15:31.814Z,17.68
2023-05-22T06:16:31.896Z,17.68
2023-05-22T06:17:31.882Z,19.61
2023-05-22T06:18:31.780Z,17.68
2023-05-22T06:19:31.846Z,18.96
2023-05-22T06:20:31.757Z,17.68
2023-05-22T06:21:31.732Z,17.68
2023-05-22T06:22:31.746Z,17.68
2023-05-22T06:23:31.707Z,17.35
2023-05-22T06:24:31.694Z,19.93
2023-05-22T06:25:31.684Z,17.35
2023-05-22T06:26:32.060Z,16.39
2023-05-22T06:27:31.659Z,17.03
2023-05-22T06:28:31.644Z,17.35
2023-05-22T06:29:31.642Z,18.00
2023-05-22T06:30:43.440Z,17.68
2023-05-22T06:31:32.629Z,18.32
2023-05-22T06:32:31.828Z,18.00
2023-05-22T06:33:31.700Z,18.96
2023-05-22T06:34:31.627Z,17.35
2023-05-22T06:35:31.555Z,19.61
2023-05-22T06:36:31.543Z,16.71
2023-05-22T06:37:31.566Z,18.96
2023-05-22T06:38:31.519Z,18.32
2023-05-22T06:39:32.200Z,17.35
2023-05-22T06:40:31.534Z,19.93
2023-05-22T06:41:31.467Z,17.03
2023-05-22T06:42:31.457Z,19.61
2023-05-22T06:43:31.440Z,16.71
2023-05-22T06:44:31.431Z,18.00
2023-05-22T06:45:31.497Z,17.35
2023-05-22T06:46:31.512Z,19.93
2023-05-22T06:47:31.406Z,18.64
2023-05-22T06:48:31.377Z,17.68
2023-05-22T06:49:31.458Z,18.64
2023-05-22T06:50:31.353Z,18.64
2023-05-22T06:51:31.342Z,16.71
2023-05-22T06:52:31.323Z,18.96
2023-05-22T06:53:31.322Z,18.32
2023-05-22T06:54:31.301Z,18.00
2023-05-22T06:55:31.638Z,17.35
2023-05-22T06:56:31.284Z,17.35
2023-05-22T06:57:31.263Z,18.64
2023-05-22T06:58:31.487Z,17.68
2023-05-22T06:59:31.226Z,18.32
2023-05-22T07:00:31.221Z,17.03
2023-05-22T07:01:31.240Z,18.00
2023-05-22T07:02:31.279Z,18.64
2023-05-22T07:03:31.184Z,17.68
2023-05-22T07:04:31.171Z,18.64
2023-05-22T07:05:31.363Z,18.96
2023-05-22T07:06:31.162Z,17.68
2023-05-22T07:07:31.138Z,17.68
2023-05-22T07:08:31.116Z,19.61
2023-05-22T07:09:31.101Z,20.25
2023-05-22T07:10:31.381Z,18.00
2023-05-22T07:11:31.079Z,18.64
2023-05-22T07:12:31.058Z,18.96
2023-05-22T07:13:31.044Z,17.35
2023-05-22T07:14:31.030Z,18.64
2023-05-22T07:15:31.020Z,18.32
2023-05-22T07:16:31.080Z,18.32
2023-05-22T07:17:31.007Z,18.00
2023-05-22T07:18:30.983Z,17.68
2023-05-22T07:19:31.056Z,18.32
2023-05-22T07:20:30.958Z,18.00
2023-05-22T07:21:30.963Z,18.00
2023-05-22T07:22:30.925Z,18.64
2023-05-22T07:23:30.918Z,17.35
2023-05-22T07:24:30.911Z,19.29
2023-05-22T07:25:30.888Z,18.00
2023-05-22T07:26:30.874Z,18.32
2023-05-22T07:27:30.864Z,18.96
2023-05-22T07:28:30.850Z,19.61
2023-05-22T07:29:30.838Z,19.61
2023-05-22T07:30:30.820Z,18.00
2023-05-22T07:31:30.831Z,18.00
2023-05-22T07:32:30.840Z,17.35
2023-05-22T07:33:30.784Z,18.00
2023-05-22T07:34:30.784Z,17.68
2023-05-22T07:35:30.749Z,18.00
2023-05-22T07:36:30.739Z,17.68
2023-05-22T07:37:30.780Z,18.32
2023-05-22T07:38:31.170Z,19.29
2023-05-22T07:39:30.707Z,18.32
2023-05-22T07:40:30.697Z,20.25
2023-05-22T07:41:30.676Z,19.29
2023-05-22T07:42:30.670Z,18.00
2023-05-22T07:43:30.659Z,18.64
2023-05-22T07:44:30.638Z,18.64
2023-05-22T07:45:30.931Z,21.22
2023-05-22T07:46:30.652Z,18.64
2023-05-22T07:47:30.603Z,17.35
2023-05-22T07:48:30.585Z,19.61
2023-05-22T07:49:30.568Z,18.32
2023-05-22T07:50:30.664Z,20.58
2023-05-22T07:51:30.545Z,17.35
2023-05-22T07:52:30.546Z,18.32
2023-05-22T07:53:30.536Z,18.32
2023-05-22T07:54:30.708Z,18.96
2023-05-22T07:55:30.494Z,19.93
2023-05-22T07:56:30.484Z,18.64
2023-05-22T07:57:30.472Z,18.96
2023-05-22T07:58:30.459Z,19.29
2023-05-22T07:59:30.455Z,19.29
2023-05-22T08:00:30.434Z,17.68
2023-05-22T08:01:30.416Z,19.93
2023-05-22T08:02:30.517Z,18.96
2023-05-22T08:03:30.506Z,18.96
2023-05-22T08:04:30.438Z,18.64
2023-05-22T08:05:30.406Z,17.68
2023-05-22T08:06:30.349Z,18.96
2023-05-22T08:07:30.342Z,18.32
2023-05-22T08:08:31.806Z,18.96
2023-05-22T08:09:30.456Z,18.32
2023-05-22T08:10:46.392Z,19.29
2023-05-22T08:11:31.337Z,18.64
2023-05-22T08:12:30.283Z,18.64
2023-05-22T08:13:30.356Z,20.25
2023-05-22T08:14:30.252Z,18.64
2023-05-22T08:15:30.231Z,18.96
2023-05-22T08:16:30.414Z,19.29
2023-05-22T08:17:30.235Z,18.64
2023-05-22T08:18:30.500Z,18.00
2023-05-22T08:19:30.265Z,18.00
2023-05-22T08:20:30.232Z,19.29
2023-05-22T08:21:30.179Z,19.29
2023-05-22T08:22:30.143Z,18.96
2023-05-22T08:23:30.291Z,19.93
2023-05-22T08:24:30.120Z,18.96
2023-05-22T08:25:30.136Z,19.61
2023-05-22T08:26:31.465Z,19.93
2023-05-22T08:27:30.075Z,19.93
2023-05-22T08:28:30.070Z,18.96
2023-05-22T08:29:30.051Z,19.29
2023-05-22T08:30:30.077Z,20.25
2023-05-22T08:31:30.141Z,19.29
2023-05-22T08:32:31.380Z,20.58
2023-05-22T08:33:30.009Z,18.64
2023-05-22T08:34:30.048Z,19.61
2023-05-22T08:35:29.982Z,19.61
2023-05-22T08:36:29.975Z,21.22
2023-05-22T08:37:29.954Z,19.29
2023-05-22T08:38:29.950Z,18.64
2023-05-22T08:39:29.934Z,19.61
2023-05-22T08:40:29.965Z,20.58
2023-05-22T08:41:30.483Z,19.29
2023-05-22T08:42:29.945Z,19.93
2023-05-22T08:43:29.990Z,18.96
2023-05-22T08:44:29.929Z,20.25
2023-05-22T08:45:29.925Z,18.64
2023-05-22T08:46:30.015Z,19.93
2023-05-22T08:47:29.952Z,19.93
2023-05-22T08:48:29.876Z,18.96
2023-05-22T08:49:29.839Z,20.90
2023-05-22T08:50:29.806Z,20.90
2023-05-22T08:51:29.781Z,20.58
2023-05-22T08:52:29.827Z,18.64
2023-05-22T08:53:29.759Z,18.96
2023-05-22T08:54:29.746Z,19.61
2023-05-22T08:55:29.745Z,19.29
2023-05-22T08:56:29.857Z,19.93
2023-05-22T08:57:29.735Z,19.61
2023-05-22T08:58:29.701Z,19.61
2023-05-22T08:59:29.692Z,19.93
2023-05-22T09:00:29.686Z,18.96
2023-05-22T09:01:29.848Z,20.90
2023-05-22T09:02:29.694Z,20.25
2023-05-22T09:03:29.801Z,19.93
2023-05-22T09:04:29.628Z,20.90
2023-05-22T09:05:29.618Z,19.61
2023-05-22T09:06:29.618Z,19.29
2023-05-22T09:07:29.594Z,18.96
2023-05-22T09:08:29.584Z,21.22
2023-05-22T09:09:29.599Z,21.22
2023-05-22T09:10:29.551Z,20.25
2023-05-22T09:11:29.593Z,19.61
2023-05-22T09:12:29.528Z,21.87
2023-05-22T09:13:29.575Z,19.29
2023-05-22T09:14:29.510Z,20.25
2023-05-22T09:15:29.501Z,20.25
2023-05-22T09:16:29.538Z,20.90
2023-05-22T09:17:29.490Z,19.61
2023-05-22T09:18:29.465Z,19.93
2023-05-22T09:19:29.521Z,21.22
2023-05-22T09:20:29.435Z,18.96
2023-05-22T09:21:30.628Z,19.61
2023-05-22T09:22:29.470Z,19.93
2023-05-22T09:23:29.403Z,20.58
2023-05-22T09:24:29.395Z,19.29
2023-05-22T09:25:29.386Z,20.25
2023-05-22T09:26:29.368Z,19.93
2023-05-22T09:27:29.356Z,19.29
2023-05-22T09:28:29.343Z,19.93
2023-05-22T09:29:29.365Z,21.22
2023-05-22T09:30:29.319Z,20.58
2023-05-22T09:31:29.473Z,19.61
2023-05-22T09:32:29.331Z,19.61
2023-05-22T09:33:29.291Z,20.25
2023-05-22T09:34:29.269Z,19.29
2023-05-22T09:35:29.263Z,20.90
2023-05-22T09:36:29.252Z,20.90
2023-05-22T09:37:29.240Z,19.29
2023-05-22T09:38:29.236Z,19.61
2023-05-22T09:39:29.220Z,19.61
2023-05-22T09:40:29.206Z,20.58
2023-05-22T09:41:29.199Z,20.58
2023-05-22T09:42:29.188Z,20.25
2023-05-22T09:43:29.169Z,19.61
2023-05-22T09:44:29.153Z,19.29
2023-05-22T09:45:29.165Z,21.87
2023-05-22T09:46:29.181Z,20.25
2023-05-22T09:47:29.177Z,21.22
2023-05-22T09:48:29.120Z,21.22
2023-05-22T09:49:29.104Z,20.58
2023-05-22T09:50:29.087Z,19.61
2023-05-22T09:51:29.075Z,20.90
2023-05-22T09:52:29.062Z,20.90
2023-05-22T09:53:29.056Z,19.93
2023-05-22T09:54:29.090Z,18.96
2023-05-22T09:55:29.040Z,19.93
2023-05-22T09:56:38.600Z,19.29
2023-05-22T09:57:30.033Z,19.93
2023-05-22T09:58:28.992Z,19.93
2023-05-22T09:59:28.994Z,20.90
2023-05-22T10:00:28.968Z,21.54
2023-05-22T10:01:29.064Z,19.93
2023-05-22T10:02:29.020Z,19.93
2023-05-22T10:03:28.946Z,21.22
2023-05-22T10:04:28.953Z,20.58
2023-05-22T10:05:28.923Z,19.61
2023-05-22T10:06:28.904Z,20.90
2023-05-22T10:07:28.893Z,20.90
2023-05-22T10:08:28.977Z,21.22
2023-05-22T10:09:28.873Z,19.93
2023-05-22T10:10:28.854Z,20.90
2023-05-22T10:11:28.850Z,20.90
2023-05-22T10:12:29.034Z,20.58
2023-05-22T10:13:28.829Z,21.22
2023-05-22T10:14:29.640Z,20.25
2023-05-22T10:15:28.810Z,20.90
2023-05-22T10:16:28.854Z,21.22
2023-05-22T10:17:28.915Z,20.58
2023-05-22T10:18:28.763Z,20.90
2023-05-22T10:19:28.804Z,21.22
2023-05-22T10:20:28.764Z,20.90
2023-05-22T10:21:28.742Z,21.22
2023-05-22T10:22:28.730Z,20.58
2023-05-22T10:23:28.714Z,21.22
2023-05-22T10:24:28.700Z,20.58
2023-05-22T10:25:28.704Z,20.25
2023-05-22T10:26:28.682Z,21.22
2023-05-22T10:27:28.670Z,20.90
2023-05-22T10:28:28.653Z,20.90
2023-05-22T10:29:28.646Z,21.54
2023-05-22T10:30:28.637Z,20.58
2023-05-22T10:31:28.626Z,20.25
2023-05-22T10:32:28.656Z,20.25
2023-05-22T10:33:28.778Z,21.22
2023-05-22T10:34:28.607Z,21.22
2023-05-22T10:35:28.580Z,20.90
2023-05-22T10:36:28.573Z,22.51
2023-05-22T10:37:28.565Z,20.90
2023-05-22T10:38:28.639Z,21.54
2023-05-22T10:39:28.545Z,22.19
2023-05-22T10:40:28.540Z,20.58
2023-05-22T10:41:28.537Z,21.22
2023-05-22T10:42:28.517Z,22.19
2023-05-22T10:43:28.499Z,21.87
2023-05-22T10:44:28.788Z,21.54
2023-05-22T10:45:28.595Z,21.54
2023-05-22T10:46:28.607Z,21.22
2023-05-22T10:47:28.479Z,21.22
2023-05-22T10:48:28.449Z,20.58
2023-05-22T10:49:28.551Z,20.90
2023-05-22T10:50:28.418Z,22.51
2023-05-22T10:51:28.415Z,20.90
2023-05-22T10:52:28.389Z,20.58
2023-05-22T10:53:28.378Z,20.58
2023-05-22T10:54:28.365Z,20.58
2023-05-22T10:55:28.355Z,20.90
2023-05-22T10:56:28.351Z,21.87
2023-05-22T10:57:28.342Z,20.58
2023-05-22T10:58:28.354Z,20.25
2023-05-22T10:59:28.313Z,21.54
2023-05-22T11:00:28.312Z,21.22
2023-05-22T11:01:28.325Z,21.54
2023-05-22T11:02:28.360Z,21.87
2023-05-22T11:03:28.361Z,20.25
2023-05-22T11:04:28.301Z,21.87
2023-05-22T11:05:28.369Z,21.54
2023-05-22T11:06:28.236Z,22.19
2023-05-22T11:07:28.225Z,20.58
2023-05-22T11:08:28.199Z,21.87
2023-05-22T11:09:28.194Z,21.22
2023-05-22T11:10:28.180Z,20.58
2023-05-22T11:11:28.179Z,22.19
2023-05-22T11:12:28.157Z,21.22
2023-05-22T11:13:29.252Z,21.87
2023-05-22T11:14:28.147Z,20.90
2023-05-22T11:15:28.135Z,21.87
2023-05-22T11:16:28.175Z,21.87
2023-05-22T11:17:28.203Z,21.22
2023-05-22T11:18:28.095Z,21.54
2023-05-22T11:19:28.134Z,21.22
2023-05-22T11:20:28.071Z,20.90
2023-05-22T11:21:28.181Z,22.19
2023-05-22T11:22:28.047Z,23.15
2023-05-22T11:23:28.060Z,21.87
2023-05-22T11:24:28.065Z,19.93
2023-05-22T11:25:28.030Z,21.87
2023-05-22T11:26:28.282Z,21.87
2023-05-22T11:27:28.052Z,21.22
2023-05-22T11:28:27.984Z,22.19
2023-05-22T11:29:27.984Z,21.22
2023-05-22T11:30:27.964Z,22.83
2023-05-22T11:31:27.969Z,19.61
2023-05-22T11:32:27.938Z,20.58
2023-05-22T11:33:27.932Z,21.54
2023-05-22T11:34:28.074Z,21.22
2023-05-22T11:35:27.903Z,21.22
2023-05-22T11:36:27.904Z,21.87
2023-05-22T11:37:28.011Z,21.54
2023-05-22T11:38:27.880Z,21.22
2023-05-22T11:39:27.874Z,22.83
2023-05-22T11:40:27.847Z,20.90
2023-05-22T11:41:27.841Z,22.51
2023-05-22T11:42:27.826Z,21.54
2023-05-22T11:43:27.813Z,21.22
2023-05-22T11:44:27.862Z,22.51
2023-05-22T11:45:27.796Z,23.48
2023-05-22T11:46:27.861Z,22.51
2023-05-22T11:47:27.778Z,21.22
2023-05-22T11:48:27.753Z,21.54
2023-05-22T11:49:27.744Z,21.87
2023-05-22T11:50:40.967Z,21.22
2023-05-22T11:51:28.781Z,21.87
2023-05-22T11:52:27.714Z,22.51
2023-05-22T11:53:27.856Z,21.54
2023-05-22T11:54:27.689Z,22.83
2023-05-22T11:55:27.673Z,22.19
2023-05-22T11:56:27.661Z,23.48
2023-05-22T11:57:27.651Z,21.54
2023-05-22T11:58:27.634Z,22.83
2023-05-22T11:59:27.621Z,23.15
2023-05-22T12:00:27.647Z,22.51
2023-05-22T12:01:27.602Z,23.15
2023-05-22T12:02:27.696Z,23.15
2023-05-22T12:03:27.686Z,22.19
2023-05-22T12:04:27.563Z,21.54
2023-05-22T12:05:27.550Z,22.51
2023-05-22T12:06:27.559Z,21.54
2023-05-22T12:07:27.527Z,22.19
2023-05-22T12:08:27.517Z,22.51
2023-05-22T12:09:27.634Z,22.51
2023-05-22T12:10:27.491Z,23.48
2023-05-22T12:11:27.489Z,22.51
2023-05-22T12:12:27.460Z,22.19
2023-05-22T12:13:27.461Z,24.12
2023-05-22T12:14:27.440Z,23.15
2023-05-22T12:15:27.442Z,22.51
2023-05-22T12:16:27.492Z,21.87
2023-05-22T12:17:27.457Z,21.87
2023-05-22T12:18:27.405Z,22.83
2023-05-22T12:19:27.459Z,21.87
2023-05-22T12:20:27.366Z,22.51
2023-05-22T12:21:27.362Z,22.19
2023-05-22T12:22:27.357Z,21.87
2023-05-22T12:23:27.332Z,22.51
2023-05-22T12:24:27.352Z,23.15
2023-05-22T12:25:27.430Z,21.54
2023-05-22T12:26:27.295Z,22.51
2023-05-22T12:27:27.291Z,22.83
2023-05-22T12:28:27.515Z,21.87
2023-05-22T12:29:27.250Z,21.54
2023-05-22T12:30:27.251Z,20.90
2023-05-22T12:31:27.268Z,21.87
2023-05-22T12:32:27.261Z,22.19
2023-05-22T12:33:27.201Z,23.48
2023-05-22T12:34:27.194Z,22.51
2023-05-22T12:35:27.189Z,21.87
2023-05-22T12:36:27.177Z,20.90
2023-05-22T12:37:27.161Z,22.51
2023-05-22T12:38:27.148Z,23.15
2023-05-22T12:39:27.133Z,22.19
2023-05-22T12:40:27.126Z,21.87
2023-05-22T12:41:27.226Z,21.87
2023-05-22T12:42:27.104Z,22.51
2023-05-22T12:43:27.098Z,23.80
2023-05-22T12:44:27.064Z,21.87
2023-05-22T12:45:27.052Z,22.83
2023-05-22T12:46:27.062Z,22.51
2023-05-22T12:47:27.114Z,21.22
2023-05-22T12:48:27.224Z,23.80
2023-05-22T12:49:27.007Z,23.80
2023-05-22T12:50:27.000Z,23.80
2023-05-22T12:51:27.012Z,23.15
2023-05-22T12:52:26.986Z,21.87